Hot Springs, VA

8:09 AM EST on February 19, 2017 (GMT -0500)
Ingalls

Weather History for KHSP - December, 2014

Change the Weather History Date:

Wednesday, December 31, 2014

  Actual Average Record
Temperature  
Mean Temperature 20 °F -  
Max Temperature 25 °F 33 °F 55 °F (2002)
Min Temperature 14 °F 20 °F 6 °F (2000)
Degree Days  
Heating Degree Days 46    
Moisture  
Dew Point 8 °F    
Average Humidity 65    
Maximum Humidity 89    
Minimum Humidity 39    
Precipitation  
Precipitation 0.00 in - - ()
Sea Level Pressure  
Sea Level Pressure 30.16 in    
Wind  
Wind Speed 16 mph (West)    
Max Wind Speed 25 mph    
Max Gust Speed 33 mph    
Visibility 10 miles    
Events      
Averages and records for this station are not official NWS values.
T = Trace of Precipitation, MM = Missing Value Source: NWS Daily Summary

Daily Weather History Graph

Daily Weather History Graph

Search for Another Location

Airport or City:

Trip Planner

Search our weather history database for the weather conditions in past years. The results will help you decide how hot, cold, wet, or windy it might be!

Date:

Astronomy

Dec. 31, 2014 Rise Set
Actual Time 7:35 AM EST 5:09 PM EST
Civil Twilight 7:05 AM EST 5:39 PM EST
Nautical Twilight 6:32 AM EST 6:12 PM EST
Astronomical Twilight 6:00 AM EST 6:44 PM EST
Moon 1:57 PM EST (12/31) 3:02 AM EST (12/31)
Length of Visible Light 10h 33m
Length of Day
9h 34m
Waxing Gibbous, 80% of the Moon is Illuminated
Dec 31
Waxing Gibbous
Jan 4
Full
Jan 13
Last Quarter
Jan 20
New
Jan 26
First Quarter

Hourly Weather History & Observations

Time (EST) Temp. Windchill Dew Point Humidity Pressure Visibility Wind Dir Wind Speed Gust Speed Precip Events Conditions
12:15 AM 20.3 °F 6.6 °F 13.1 °F 74% 30.24 in 10.0 mi West 15.0 mph 18.4 mph N/A   Clear
12:35 AM 19.9 °F 6.2 °F 12.7 °F 74% 30.22 in 10.0 mi West 15.0 mph 21.9 mph N/A   Clear
12:55 AM 19.4 °F 5.5 °F 12.4 °F 74% 30.22 in 10.0 mi West 15.0 mph - N/A   Clear
1:15 AM 19.4 °F 5.5 °F 11.8 °F 72% 30.21 in 10.0 mi West 15.0 mph 20.7 mph N/A   Clear
1:35 AM 18.9 °F 5.3 °F 12.9 °F 78% 30.22 in 10.0 mi WNW 13.8 mph - N/A   Clear
1:55 AM 18.9 °F 3.8 °F 12.4 °F 76% 30.21 in 10.0 mi West 17.3 mph 20.7 mph N/A   Clear
2:15 AM 18.9 °F 3.8 °F 11.8 °F 74% 30.22 in 10.0 mi West 17.3 mph 21.9 mph N/A   Clear
2:35 AM 18.9 °F 2.9 °F 11.7 °F 74% 30.22 in 10.0 mi West 19.6 mph 24.2 mph N/A   Clear
2:55 AM 18.9 °F 3.3 °F 11.8 °F 74% 30.23 in 10.0 mi West 18.4 mph 24.2 mph N/A   Clear
3:15 AM 18.5 °F 3.3 °F 12.0 °F 76% 30.23 in 10.0 mi West 17.3 mph 23.0 mph N/A   Clear
3:35 AM 18.1 °F 2.0 °F 12.4 °F 78% 30.22 in 10.0 mi West 19.6 mph - N/A   Clear
3:55 AM 17.6 °F 1.7 °F 12.6 °F 81% 30.20 in 10.0 mi WNW 18.4 mph 26.5 mph N/A   Clear
4:15 AM 17.2 °F 0.4 °F 12.7 °F 83% 30.18 in 10.0 mi WNW 20.7 mph 25.3 mph N/A   Clear
4:35 AM 17.1 °F 0.6 °F 12.7 °F 83% 30.19 in 10.0 mi West 19.6 mph 26.5 mph N/A   Clear
4:55 AM 16.5 °F -0.6 °F 12.9 °F 86% 30.18 in 10.0 mi WNW 20.7 mph 26.5 mph N/A   Clear
5:15 AM 16.2 °F -0.6 °F 12.9 °F 87% 30.18 in 10.0 mi WNW 19.6 mph 25.3 mph N/A   Clear
5:35 AM 15.8 °F -1.1 °F 12.9 °F 88% 30.18 in 10.0 mi WNW 19.6 mph 25.3 mph N/A   Clear
5:55 AM 15.8 °F -0.2 °F 12.7 °F 88% 30.19 in 10.0 mi WNW 17.3 mph 26.5 mph N/A   Clear
6:15 AM 15.8 °F -1.1 °F 12.6 °F 87% 30.19 in 10.0 mi WNW 19.6 mph 24.2 mph N/A   Clear
6:35 AM 15.4 °F -0.6 °F 12.0 °F 86% 30.18 in 10.0 mi West 17.3 mph 25.3 mph N/A   Clear
6:55 AM 15.3 °F -0.4 °F 11.7 °F 86% 30.19 in 10.0 mi WNW 16.1 mph - N/A   Clear
7:15 AM 14.9 °F -0.8 °F 11.8 °F 88% 30.20 in 10.0 mi West 16.1 mph - N/A   Clear
7:35 AM 14.9 °F -0.3 °F 11.7 °F 87% 30.20 in 10.0 mi WNW 15.0 mph - N/A   Scattered Clouds
7:55 AM 14.5 °F -1.3 °F 11.8 °F 89% 30.20 in 10.0 mi West 16.1 mph - N/A   Scattered Clouds
8:15 AM 14.5 °F 0.5 °F 11.3 °F 87% 30.21 in 10.0 mi West 12.7 mph - N/A   Scattered Clouds
8:35 AM 14.9 °F -1.3 °F 11.3 °F 86% 30.21 in 10.0 mi West 17.3 mph - N/A   Scattered Clouds
8:55 AM 15.4 °F 1.0 °F 11.1 °F 83% 30.22 in 10.0 mi West 13.8 mph - N/A   Clear
9:15 AM 15.8 °F 0.9 °F 10.2 °F 79% 30.22 in 10.0 mi West 15.0 mph 19.6 mph N/A   Clear
9:30 AM 16.2 °F 3.2 °F 10.4 °F 78% 30.22 in 10.0 mi West 11.5 mph - N/A   Clear
9:55 AM 16.7 °F 2.0 °F 10.6 °F 77% 30.22 in 10.0 mi WNW 15.0 mph 20.7 mph N/A   Clear
10:15 AM 17.4 °F 4.7 °F 10.0 °F 73% 30.22 in 10.0 mi WNW 11.5 mph 19.6 mph N/A   Clear
10:35 AM 18.1 °F 5.0 °F 10.2 °F 71% 30.22 in 10.0 mi West 12.7 mph - N/A   Clear
10:50 AM 18.9 °F 5.3 °F 9.9 °F 68% 30.23 in 10.0 mi West 13.8 mph 19.6 mph N/A   Clear
11:15 AM 19.8 °F 7.1 °F 10.4 °F 67% 30.21 in 10.0 mi West 12.7 mph - N/A   Clear
11:30 AM 20.3 °F 9.0 °F 9.0 °F 62% 30.20 in 10.0 mi West 10.4 mph 17.3 mph N/A   Clear
11:55 AM 21.2 °F 7.3 °F 7.9 °F 57% 30.18 in 10.0 mi West 16.1 mph 20.7 mph N/A   Clear
12:15 PM 21.9 °F 9.2 °F 8.8 °F 57% 30.17 in 10.0 mi West 13.8 mph - N/A   Clear
12:35 PM 22.6 °F 9.6 °F 7.9 °F 53% 30.17 in 10.0 mi West 15.0 mph 20.7 mph N/A   Clear
12:55 PM 23.0 °F 10.6 °F 7.0 °F 50% 30.16 in 10.0 mi WNW 13.8 mph - N/A   Clear
1:15 PM 23.7 °F 12.1 °F 7.3 °F 50% 30.16 in 10.0 mi WNW 12.7 mph - N/A   Clear
1:35 PM 23.7 °F 11.0 °F 4.6 °F 44% 30.16 in 10.0 mi West 15.0 mph 20.7 mph N/A   Clear
1:55 PM 24.3 °F 11.7 °F 5.9 °F 46% 30.15 in 10.0 mi West 15.0 mph 23.0 mph N/A   Clear
2:15 PM 24.4 °F 11.9 °F 6.6 °F 47% 30.15 in 10.0 mi West 15.0 mph 24.2 mph N/A   Clear
2:35 PM 24.6 °F 12.7 °F 5.4 °F 44% 30.15 in 10.0 mi West 13.8 mph 23.0 mph N/A   Clear
2:55 PM 24.8 °F 11.9 °F 3.6 °F 40% 30.15 in 10.0 mi WNW 16.1 mph 20.7 mph N/A   Clear
3:15 PM 24.8 °F 12.9 °F 4.5 °F 42% 30.15 in 10.0 mi West 13.8 mph - N/A   Clear
3:35 PM 25.3 °F 14.1 °F 4.3 °F 41% 30.15 in 10.0 mi West 12.7 mph - N/A   Clear
3:55 PM 24.8 °F 12.9 °F 3.2 °F 40% 30.15 in 10.0 mi West 13.8 mph - N/A   Clear
4:15 PM 24.3 °F 12.2 °F 2.7 °F 39% 30.15 in 10.0 mi West 13.8 mph - N/A   Clear
4:35 PM 23.5 °F 12.4 °F 1.8 °F 39% 30.15 in 10.0 mi West 11.5 mph 19.6 mph N/A   Clear
4:55 PM 22.6 °F 10.1 °F 0.9 °F 39% 30.14 in 10.0 mi West 13.8 mph 19.6 mph N/A   Clear
5:15 PM 21.7 °F 9.0 °F 0.7 °F 40% 30.14 in 10.0 mi West 13.8 mph - N/A   Clear
5:35 PM 21.2 °F 8.9 °F 0.7 °F 41% 30.13 in 10.0 mi West 12.7 mph 18.4 mph N/A   Clear
5:55 PM 21.0 °F 7.6 °F 0.3 °F 41% 30.13 in 10.0 mi West 15.0 mph 25.3 mph N/A   Clear
6:15 PM 20.5 °F 6.9 °F 0.7 °F 42% 30.12 in 10.0 mi West 15.0 mph 23.0 mph N/A   Clear
6:35 PM 20.3 °F 6.1 °F 2.3 °F 46% 30.11 in 10.0 mi West 16.1 mph 23.0 mph N/A   Clear
6:55 PM 19.9 °F 6.2 °F 3.2 °F 48% 30.11 in 10.0 mi West 15.0 mph 21.9 mph N/A   Clear
7:15 PM 19.9 °F 6.7 °F 4.3 °F 51% 30.11 in 10.0 mi West 13.8 mph 26.5 mph N/A   Clear
7:35 PM 19.4 °F 5.0 °F 5.2 °F 54% 30.10 in 10.0 mi West 16.1 mph 24.2 mph N/A   Clear
7:55 PM 19.4 °F 5.0 °F 5.5 °F 55% 30.10 in 10.0 mi West 16.1 mph - N/A   Clear
8:15 PM 19.4 °F 4.1 °F 6.1 °F 56% 30.09 in 10.0 mi West 18.4 mph 24.2 mph N/A   Clear
8:35 PM 19.2 °F 4.3 °F 6.6 °F 58% 30.08 in 10.0 mi West 17.3 mph 27.6 mph N/A   Clear
8:55 PM 19.0 °F 3.2 °F 7.2 °F 60% 30.08 in 10.0 mi West 19.6 mph 28.8 mph N/A   Clear
9:15 PM 19.0 °F 2.7 °F 7.5 °F 61% 30.08 in 10.0 mi West 20.7 mph 31.1 mph N/A   Clear
9:35 PM 18.9 °F 1.7 °F 7.3 °F 61% 30.07 in 10.0 mi West 23.0 mph 29.9 mph N/A   Clear
9:55 PM 18.9 °F 2.1 °F 7.2 °F 60% 30.07 in 10.0 mi West 21.9 mph 28.8 mph N/A   Clear
10:15 PM 18.5 °F 2.0 °F 7.3 °F 62% 30.07 in 10.0 mi West 20.7 mph 31.1 mph N/A   Clear
10:35 PM 18.5 °F 0.9 °F 7.5 °F 62% 30.05 in 10.0 mi West 24.2 mph 32.2 mph N/A   Clear
10:55 PM 18.5 °F 0.9 °F 7.5 °F 62% 30.05 in 10.0 mi West 24.2 mph 31.1 mph N/A   Clear
11:15 PM 18.5 °F 1.3 °F 7.2 °F 61% 30.05 in 10.0 mi West 23.0 mph 29.9 mph N/A   Clear
11:35 PM 18.5 °F 0.6 °F 7.2 °F 61% 30.05 in 10.0 mi West 25.3 mph 32.2 mph N/A   Clear
11:55 PM 18.3 °F 0.3 °F 7.3 °F 62% 30.04 in 10.0 mi West 25.3 mph 33.4 mph N/A   Clear